Time;durP1;ratioP1;P1;durP2;ratioP2;P2;SDS_P1;SDS_P2;PMS_P1;PMS_P2;Temp;Humidity;BMP_temperature;BMP_pressure;BME280_temperature;BME280_humidity;BME280_pressure;Samples;Min_cycle;Max_cycle;Signal;HPM_P1;HPM_P2
2022/03/24 00:15:02;;;;;;;;;;;;;;;;;;;;;
2022/03/24 00:45:57;;;;;;;;;;;;;;;1.86;70.79;101793.56;4865123;29;985;-90
2022/03/24 00:52:40;;;;;;;;;;;;;;;1.57;72.31;101794.47;4897483;29;1649;-90
2022/03/24 00:58:23;;;;;;;;;;;;;;;;;;;;;
2022/03/24 01:01:27;;;;;;;;;;;;;;;;;;;;;
2022/03/24 01:03:59;;;;;;;;;;;;;;;2.19;69.61;101781.22;5016960;28;1683;-90
2022/03/24 01:06:34;;;;;;;;;;;;;;;2.11;70.11;101785.91;5014887;28;1531;-90
2022/03/24 01:09:07;;;;;;;;;;;;;;;2.00;69.85;101770.22;5015356;28;1699;-89
2022/03/24 01:11:42;;;;;;;;;;;;;;;1.82;70.47;101776.91;5014969;28;1685;-90
2022/03/24 01:14:09;;;;;;;;;;;;;;;1.92;70.71;101776.59;5014634;28;1702;-90
2022/03/24 01:16:58;;;;;;;;;;;;;;;1.98;70.26;101772.25;4998492;28;1701;-90
2022/03/24 01:29:29;;;;;;;;;;;;;;;;;;;;;
2022/03/24 01:36:01;;;;;;;;;;;;;;;;;;;;;
2022/03/24 01:38:47;;;;;;;;;;;;;;;;;;;;;
2022/03/24 01:41:55;;;;;;;;;;;;;;;1.41;71.11;101773.94;4893007;29;1672;-90
2022/03/24 01:44:39;;;;;;;;;;;;;;;1.49;72.08;101770.31;4932036;28;1742;-90
2022/03/24 01:47:10;;;;;;;;;;;;;;;1.43;72.24;101777.31;4957670;28;1380;-90
2022/03/24 01:49:46;;;;;;;;;;;;;;;1.49;72.06;101765.75;4940352;29;1730;-90
2022/03/24 01:52:12;;;;;;;;;;;;;;;1.36;71.62;101776.38;4939792;28;1923;-89
2022/03/24 01:54:44;;;;;;;;;;;;;;;1.12;72.14;101768.59;4999361;28;1237;-90
2022/03/24 01:57:10;;;;;;;;;;;;;;;1.10;72.01;101768.81;5013213;28;1618;-89
2022/03/24 01:59:39;;;;;;;;;;;;;;;1.25;71.71;101763.38;4999086;28;1961;-90
2022/03/24 02:02:05;;;;;;;;;;;;;;;1.32;71.29;101768.84;5013856;28;1327;-90
2022/03/24 02:04:32;;;;;;;;;;;;;;;1.47;71.50;101770.50;5013411;28;1824;-90
2022/03/24 02:06:58;;;;;;;;;;;;;;;1.50;70.89;101766.59;5014042;28;1263;-90
2022/03/24 02:09:23;;;;;;;;;;;;;;;1.33;71.22;101765.13;5013900;28;1394;-90
2022/03/24 02:11:48;;;;;;;;;;;;;;;1.40;71.89;101766.88;5013583;28;1438;-90
2022/03/24 02:14:14;;;;;;;;;;;;;;;1.40;71.75;101766.88;5013374;28;1429;-90
2022/03/24 02:16:40;;;;;;;;;;;;;;;1.18;71.63;101761.63;5013670;28;1319;-90
2022/03/24 02:19:12;;;;;;;;;;;;;;;1.00;72.89;101765.56;5013778;28;1961;-89
2022/03/24 02:21:47;;;;;;;;;;;;;;;1.11;72.76;101756.97;5020226;28;1713;-90
2022/03/24 02:27:34;;;;;;;;;;;;;;;;;;;;;
2022/03/24 02:29:59;;;;;;;;;;;;;;;1.03;72.96;101765.16;5009137;28;1627;-89
2022/03/24 02:32:25;;;;;;;;;;;;;;;1.01;72.25;101764.53;5013104;28;1402;-90
2022/03/24 02:34:51;;;;;;;;;;;;;;;1.04;72.38;101757.91;5013326;28;1823;-89
2022/03/24 02:37:25;;;;;;;;;;;;;;;0.97;71.87;101759.69;5011541;28;1733;-90
2022/03/24 02:39:57;;;;;;;;;;;;;;;0.90;72.85;101756.91;5009850;28;1898;-90
2022/03/24 02:42:28;;;;;;;;;;;;;;;0.90;72.60;101748.81;5013234;28;1489;-90
2022/03/24 02:45:06;;;;;;;;;;;;;;;0.91;72.63;101755.88;5015604;28;1404;-90
2022/03/24 02:47:40;;;;;;;;;;;;;;;0.97;72.84;101763.22;5016670;28;1704;-90
2022/03/24 02:50:09;;;;;;;;;;;;;;;1.07;73.59;101757.53;5008382;28;1596;-91
2022/03/24 02:52:53;;;;;;;;;;;;;;;1.03;72.86;101765.16;4993630;28;1338;-90
2022/03/24 02:55:30;;;;;;;;;;;;;;;0.98;73.13;101762.19;5022289;28;1380;-90
2022/03/24 02:57:55;;;;;;;;;;;;;;;0.87;73.13;101759.13;5021781;28;1895;-90
2022/03/24 03:00:22;;;;;;;;;;;;;;;0.83;73.22;101755.97;5007414;28;1640;-90
2022/03/24 03:02:47;;;;;;;;;;;;;;;0.87;73.03;101759.13;5012879;28;1478;-91
2022/03/24 03:05:12;;;;;;;;;;;;;;;0.83;73.24;101761.38;5012957;28;1544;-91
2022/03/24 03:07:38;;;;;;;;;;;;;;;0.82;73.19;101764.25;5017535;28;1492;-90
2022/03/24 03:10:08;;;;;;;;;;;;;;;0.83;73.36;101764.06;5013109;28;1247;-90
2022/03/24 03:12:34;;;;;;;;;;;;;;;0.78;73.24;101766.47;5013557;28;1465;-90
2022/03/24 03:15:07;;;;;;;;;;;;;;;0.67;73.23;101769.63;5013130;28;1374;-90
2022/03/24 03:17:37;;;;;;;;;;;;;;;0.66;73.23;101768.78;5011972;28;1591;-91
2022/03/24 03:20:04;;;;;;;;;;;;;;;0.68;73.30;101774.81;5009412;28;1636;-91
2022/03/24 03:22:29;;;;;;;;;;;;;;;0.83;73.85;101774.84;4993739;28;1380;-91
2022/03/24 03:25:15;;;;;;;;;;;;;;;0.71;73.37;101768.22;5012473;28;1783;-91
2022/03/24 03:27:40;;;;;;;;;;;;;;;0.58;73.39;101776.13;5012767;28;1264;-91
2022/03/24 03:30:14;;;;;;;;;;;;;;;0.55;73.45;101771.09;5020781;28;1340;-91
2022/03/24 03:32:41;;;;;;;;;;;;;;;0.28;74.15;101772.53;5012616;28;1371;-91
2022/03/24 03:35:09;;;;;;;;;;;;;;;0.20;74.49;101781.50;5012752;28;1280;-90
2022/03/24 03:37:38;;;;;;;;;;;;;;;0.19;74.54;101776.31;5012567;28;1894;-91
2022/03/24 03:40:13;;;;;;;;;;;;;;;0.22;74.82;101760.63;5012759;28;1252;-91
2022/03/24 03:46:27;;;;;;;;;;;;;;;0.38;73.83;101765.03;4990708;28;1750;-91
2022/03/24 03:49:00;;;;;;;;;;;;;;;-0.04;74.85;101770.94;4990870;28;1558;-91
2022/03/24 03:51:37;;;;;;;;;;;;;;;0.12;75.10;101775.38;5012647;28;1685;-91
2022/03/24 03:54:19;;;;;;;;;;;;;;;0.12;74.64;101770.81;5012421;28;1555;-91
2022/03/24 03:57:24;;;;;;;;;;;;;;;;;;;;;
2022/03/24 04:06:15;;;;;;;;;;;;;;;0.60;73.16;101757.91;5014082;28;616;-91
2022/03/24 04:09:18;;;;;;;;;;;;;;;0.63;72.46;101752.16;4993690;28;1762;-91
2022/03/24 04:20:31;;;;;;;;;;;;;;;0.47;73.60;101763.09;5010758;28;1373;-91
2022/03/24 04:23:29;;;;;;;;;;;;;;;0.45;73.49;101759.75;5019107;28;1888;-91
2022/03/24 04:27:28;;;;;;;;;;;;;;;;;;;;;
2022/03/24 04:29:34;;;;;;;;;;;;;;;0.22;74.07;101757.09;4954994;28;1532;-92
2022/03/24 05:16:20;;;;;;;;;;;;;;;-0.18;74.42;101775.28;4940032;29;1505;-91
2022/03/24 05:37:43;;;;;;;;;;;;;;;-0.52;76.11;101767.59;4955351;29;1366;-89
2022/03/24 05:40:09;;;;;;;;;;;;;;;-0.56;75.76;101770.78;4939424;29;1229;-90
2022/03/24 05:42:34;;;;;;;;;;;;;;;-0.65;76.48;101772.69;4990688;28;1308;-88
2022/03/24 05:45:00;;;;;;;;;;;;;;;-0.63;76.03;101773.34;5014410;28;1487;-88
2022/03/24 05:47:25;;;;;;;;;;;;;;;-0.68;75.47;101770.34;5010530;28;1495;-89
2022/03/24 05:49:51;;;;;;;;;;;;;;;-0.65;75.86;101779.91;5014497;28;1295;-89
2022/03/24 05:52:16;;;;;;;;;;;;;;;-0.52;76.70;101767.59;5014653;28;1311;-89
2022/03/24 05:54:47;;;;;;;;;;;;;;;-0.25;75.41;101773.44;5014389;28;1410;-88
2022/03/24 05:57:12;;;;;;;;;;;;;;;-0.14;75.03;101773.03;5021459;28;1757;-89
2022/03/24 05:59:38;;;;;;;;;;;;;;;-0.16;74.93;101775.06;5015317;28;1898;-88
2022/03/24 06:02:13;;;;;;;;;;;;;;;0.01;75.49;101776.63;5015665;28;905;-89
2022/03/24 06:04:41;;;;;;;;;;;;;;;0.04;74.95;101778.97;5015363;28;1352;-88
2022/03/24 06:07:07;;;;;;;;;;;;;;;0.19;74.60;101785.22;5014200;28;1220;-89
2022/03/24 06:09:32;;;;;;;;;;;;;;;0.39;74.39;101777.47;5013929;28;1220;-89
2022/03/24 06:12:03;;;;;;;;;;;;;;;0.49;74.34;101775.38;5015223;28;1343;-89
2022/03/24 06:14:28;;;;;;;;;;;;;;;0.33;74.43;101781.75;5013657;28;1254;-89
2022/03/24 06:16:53;;;;;;;;;;;;;;;0.23;74.76;101778.47;5015291;28;826;-89
2022/03/24 06:19:19;;;;;;;;;;;;;;;0.25;74.40;101786.38;5021087;28;1898;-89
2022/03/24 06:21:44;;;;;;;;;;;;;;;0.39;75.05;101780.19;5033794;28;1223;-89
2022/03/24 06:24:11;;;;;;;;;;;;;;;0.45;75.26;101776.75;5033486;28;1212;-89
2022/03/24 06:26:39;;;;;;;;;;;;;;;0.51;75.55;101784.09;5033803;28;1481;-88
2022/03/24 06:29:11;;;;;;;;;;;;;;;0.51;75.27;101783.28;4994198;28;1273;-88
2022/03/24 06:31:41;;;;;;;;;;;;;;;0.48;75.26;101778.25;4994001;28;1418;-88
2022/03/24 06:34:06;;;;;;;;;;;;;;;0.57;75.34;101786.06;4994115;28;1213;-88
2022/03/24 06:36:32;;;;;;;;;;;;;;;0.69;75.62;101784.56;4994204;28;1289;-89
2022/03/24 06:38:57;;;;;;;;;;;;;;;0.87;75.23;101784.22;4994193;28;1894;-88
2022/03/24 06:41:22;;;;;;;;;;;;;;;0.96;75.42;101785.81;4995411;28;767;-88
2022/03/24 06:43:48;;;;;;;;;;;;;;;1.00;75.10;101783.59;4993661;28;1379;-88
2022/03/24 06:46:13;;;;;;;;;;;;;;;1.08;75.50;101783.47;4993891;28;1363;-89
2022/03/24 06:48:39;;;;;;;;;;;;;;;1.19;75.52;101791.13;4995095;28;850;-88
2022/03/24 06:51:04;;;;;;;;;;;;;;;1.25;75.76;101786.81;4994054;28;1209;-88
2022/03/24 06:53:30;;;;;;;;;;;;;;;1.33;75.93;101784.84;4993579;28;1278;-89
2022/03/24 06:55:55;;;;;;;;;;;;;;;1.49;75.76;101790.03;4994193;28;1344;-88
2022/03/24 06:58:22;;;;;;;;;;;;;;;1.59;75.45;101791.59;4994088;28;1894;-88
2022/03/24 07:00:47;;;;;;;;;;;;;;;1.73;75.21;101780.75;4993686;28;1236;-88
2022/03/24 07:03:12;;;;;;;;;;;;;;;1.82;74.96;101782.28;4993712;28;1367;-89
2022/03/24 07:05:38;;;;;;;;;;;;;;;1.93;74.32;101783.66;4993591;28;1193;-89
2022/03/24 07:08:04;;;;;;;;;;;;;;;2.03;74.26;101783.34;4993847;28;1311;-88
2022/03/24 07:10:29;;;;;;;;;;;;;;;2.08;75.11;101787.13;4993618;28;1291;-89
2022/03/24 07:12:54;;;;;;;;;;;;;;;2.12;76.14;101788.44;4993497;28;1253;-89
2022/03/24 07:15:19;;;;;;;;;;;;;;;2.22;76.19;101791.59;4993358;28;841;-88
2022/03/24 07:17:45;;;;;;;;;;;;;;;2.34;75.84;101796.50;4993665;28;1898;-89
2022/03/24 07:20:10;;;;;;;;;;;;;;;2.33;75.01;101798.38;4993396;28;1146;-88
2022/03/24 07:22:36;;;;;;;;;;;;;;;2.39;74.28;101802.97;4993117;28;1288;-88
2022/03/24 07:25:05;;;;;;;;;;;;;;;2.57;72.45;101797.09;4994446;28;995;-88
2022/03/24 07:27:30;;;;;;;;;;;;;;;2.74;71.44;101795.78;4993415;28;1201;-89
2022/03/24 07:29:55;;;;;;;;;;;;;;;2.80;69.44;101797.69;4993413;28;1201;-89
2022/03/24 07:32:21;;;;;;;;;;;;;;;2.89;69.40;101801.09;4993721;28;918;-89
2022/03/24 07:34:46;;;;;;;;;;;;;;;2.97;69.69;101800.94;4993112;28;1192;-88
2022/03/24 07:37:11;;;;;;;;;;;;;;;3.01;69.65;101794.91;4994638;28;988;-88
2022/03/24 07:39:36;;;;;;;;;;;;;;;3.06;68.70;101799.75;4993045;28;1951;-88
2022/03/24 07:42:02;;;;;;;;;;;;;;;3.15;68.98;101801.22;4993352;28;1201;-88
2022/03/24 07:44:27;;;;;;;;;;;;;;;3.20;69.26;101798.78;4996668;28;1381;-89
2022/03/24 07:46:52;;;;;;;;;;;;;;;3.25;68.83;101795.44;4997271;28;1169;-88
2022/03/24 07:49:17;;;;;;;;;;;;;;;3.32;69.26;101802.56;4997601;28;1242;-88
2022/03/24 07:51:43;;;;;;;;;;;;;;;3.39;69.45;101798.03;4997158;28;1166;-88
2022/03/24 07:54:10;;;;;;;;;;;;;;;3.45;69.08;101796.38;4998067;28;1201;-88
2022/03/24 07:56:35;;;;;;;;;;;;;;;3.50;68.81;101798.47;4997211;28;1225;-88
2022/03/24 07:59:01;;;;;;;;;;;;;;;3.55;68.86;101798.72;4996945;28;1906;-88
2022/03/24 08:01:27;;;;;;;;;;;;;;;3.60;68.60;101804.34;4997204;28;1240;-88
2022/03/24 08:03:53;;;;;;;;;;;;;;;3.66;68.19;101806.22;4996726;28;1307;-88
2022/03/24 08:06:19;;;;;;;;;;;;;;;3.70;67.86;101802.94;4998171;28;860;-88
2022/03/24 08:08:45;;;;;;;;;;;;;;;3.76;68.02;101806.69;5012959;28;1377;-88
2022/03/24 08:11:10;;;;;;;;;;;;;;;3.83;67.60;101812.16;5016545;28;1229;-88
2022/03/24 08:13:35;;;;;;;;;;;;;;;3.87;66.99;101800.69;5016165;28;1272;-87
2022/03/24 08:16:00;;;;;;;;;;;;;;;3.93;67.08;101807.16;5016662;28;1199;-88
2022/03/24 08:18:25;;;;;;;;;;;;;;;3.95;67.02;101805.91;5017531;28;1963;-88
2022/03/24 08:20:51;;;;;;;;;;;;;;;4.01;66.91;101809.66;5016293;28;1386;-87
2022/03/24 08:23:17;;;;;;;;;;;;;;;4.06;66.86;101807.19;5015560;28;1343;-88
2022/03/24 08:25:44;;;;;;;;;;;;;;;4.13;66.80;101806.16;5008436;28;1359;-87
2022/03/24 08:28:13;;;;;;;;;;;;;;;4.17;66.47;101812.81;4996601;28;1337;-87
2022/03/24 08:30:39;;;;;;;;;;;;;;;4.24;66.28;101812.00;5014809;28;1324;-87
2022/03/24 08:33:04;;;;;;;;;;;;;;;4.30;66.15;101814.72;5016175;28;1249;-88
2022/03/24 08:35:29;;;;;;;;;;;;;;;4.37;65.83;101806.59;5014915;28;1369;-88
2022/03/24 08:37:55;;;;;;;;;;;;;;;4.42;65.33;101806.81;5015216;28;1898;-87
2022/03/24 08:40:20;;;;;;;;;;;;;;;4.47;65.25;101801.59;5014786;28;1359;-88
2022/03/24 08:42:46;;;;;;;;;;;;;;;4.53;64.71;101812.44;5015888;28;1409;-88
2022/03/24 08:45:12;;;;;;;;;;;;;;;4.65;64.67;101798.25;5015566;28;1324;-88
2022/03/24 08:47:37;;;;;;;;;;;;;;;4.71;64.61;101798.25;5015774;28;1508;-88
2022/03/24 08:50:06;;;;;;;;;;;;;;;4.77;64.17;101797.41;5014601;28;1470;-88
2022/03/24 08:52:32;;;;;;;;;;;;;;;4.83;63.89;101796.56;5016114;28;1365;-87
2022/03/24 08:54:57;;;;;;;;;;;;;;;4.90;63.94;101800.09;5016280;28;1350;-87
2022/03/24 08:57:26;;;;;;;;;;;;;;;4.98;63.76;101804.47;5014369;28;1414;-87
2022/03/24 08:59:55;;;;;;;;;;;;;;;5.02;63.47;101797.56;5015032;28;1898;-88
2022/03/24 09:02:20;;;;;;;;;;;;;;;5.09;63.54;101797.56;5016063;28;1439;-87
2022/03/24 09:04:46;;;;;;;;;;;;;;;5.18;63.99;101799.00;5014640;28;1489;-88
2022/03/24 09:07:11;;;;;;;;;;;;;;;5.27;63.60;101803.16;5015633;28;1299;-87
2022/03/24 09:09:37;;;;;;;;;;;;;;;5.38;63.06;101798.91;5015259;28;1331;-87
2022/03/24 09:12:02;;;;;;;;;;;;;;;5.47;63.49;101803.06;5014871;28;1367;-87
2022/03/24 09:14:28;;;;;;;;;;;;;;;5.56;63.32;101796.34;5014300;28;1379;-88
2022/03/24 09:16:53;;;;;;;;;;;;;;;5.67;62.78;101807.38;5014596;28;1244;-88
2022/03/24 09:19:18;;;;;;;;;;;;;;;5.75;62.15;101802.75;5015457;28;1968;-87
2022/03/24 09:21:43;;;;;;;;;;;;;;;5.82;62.48;101795.38;5014859;28;1181;-87
2022/03/24 09:24:09;;;;;;;;;;;;;;;5.91;62.48;101799.53;5014151;28;1284;-87
2022/03/24 09:26:36;;;;;;;;;;;;;;;5.96;61.56;101797.81;5014749;28;1485;-88
2022/03/24 09:29:01;;;;;;;;;;;;;;;6.01;61.02;101799.91;5016036;28;1171;-87
2022/03/24 09:31:26;;;;;;;;;;;;;;;6.11;61.20;101792.13;5014293;28;1365;-87
2022/03/24 09:33:52;;;;;;;;;;;;;;;6.21;61.52;101797.88;5014266;28;1380;-88
2022/03/24 09:36:17;;;;;;;;;;;;;;;6.36;61.08;101786.69;5014689;28;1339;-87
2022/03/24 09:38:42;;;;;;;;;;;;;;;6.54;61.70;101794.91;5015215;28;1890;-88
2022/03/24 09:41:08;;;;;;;;;;;;;;;6.54;60.78;101794.09;5014368;28;1575;-87
2022/03/24 09:43:36;;;;;;;;;;;;;;;6.59;61.00;101791.53;5014695;28;1532;-87
2022/03/24 09:46:02;;;;;;;;;;;;;;;6.66;61.02;101795.00;5015511;28;1208;-87
2022/03/24 09:48:27;;;;;;;;;;;;;;;6.75;60.00;101791.78;5014653;28;1383;-87
2022/03/24 09:50:53;;;;;;;;;;;;;;;6.80;60.24;101783.78;5015160;28;1374;-87
2022/03/24 09:53:19;;;;;;;;;;;;;;;6.87;59.45;101783.72;5014092;28;1406;-87
2022/03/24 09:55:44;;;;;;;;;;;;;;;6.90;60.16;101783.25;5014072;28;1429;-87
2022/03/24 09:58:09;;;;;;;;;;;;;;;7.04;59.54;101784.81;5011597;28;1894;-87
2022/03/24 10:00:36;;;;;;;;;;;;;;;7.10;59.04;101785.78;5007809;28;1335;-87
2022/03/24 10:03:15;;;;;;;;;;;;;;;7.14;58.83;101779.69;5013712;28;1469;-87
2022/03/24 10:05:54;;;;;;;;;;;;;;;7.19;58.76;101777.09;5013577;28;1331;-88
2022/03/24 10:08:19;;;;;;;;;;;;;;;7.31;58.96;101769.00;5014221;28;1308;-87
2022/03/24 10:10:44;;;;;;;;;;;;;;;7.33;58.39;101771.47;5014087;28;1168;-87
2022/03/24 10:13:10;;;;;;;;;;;;;;;7.42;58.29;101770.94;5013766;28;1382;-87
2022/03/24 10:15:37;;;;;;;;;;;;;;;7.52;58.45;101776.69;5013530;28;1276;-87
2022/03/24 10:18:02;;;;;;;;;;;;;;;7.55;57.65;101778.97;5013836;28;1945;-87
2022/03/24 10:20:28;;;;;;;;;;;;;;;7.56;57.34;101769.72;5013446;28;1381;-88
2022/03/24 10:23:04;;;;;;;;;;;;;;;7.63;57.04;101766.91;5013610;28;1362;-87
2022/03/24 10:25:31;;;;;;;;;;;;;;;7.79;56.75;101758.09;5014908;28;1333;-87
2022/03/24 10:28:02;;;;;;;;;;;;;;;7.94;56.44;101758.50;5013897;28;1250;-87
2022/03/24 10:30:28;;;;;;;;;;;;;;;8.01;55.95;101763.00;5013068;28;1374;-86
2022/03/24 10:32:54;;;;;;;;;;;;;;;8.18;55.38;101769.47;5013972;28;1272;-87
2022/03/24 10:35:20;;;;;;;;;;;;;;;8.26;55.23;101761.78;5013196;28;1342;-88
2022/03/24 10:37:49;;;;;;;;;;;;;;;8.48;55.28;101755.78;5013383;28;1311;-87
2022/03/24 10:40:15;;;;;;;;;;;;;;;8.61;54.12;101756.38;5013210;28;1886;-87
2022/03/24 10:42:40;;;;;;;;;;;;;;;8.70;53.24;101745.94;5013486;28;1280;-87
2022/03/24 10:45:20;;;;;;;;;;;;;;;8.72;52.53;101739.19;5012845;28;1485;-87
2022/03/24 10:47:48;;;;;;;;;;;;;;;8.81;52.13;101741.56;5021594;28;1428;-87
2022/03/24 10:50:28;;;;;;;;;;;;;;;8.90;51.74;101738.22;5012801;28;1326;-86
2022/03/24 10:53:25;;;;;;;;;;;;;;;8.95;51.94;101741.06;5014888;28;1562;-87
2022/03/24 10:56:03;;;;;;;;;;;;;;;8.97;52.47;101733.47;4974937;28;1372;-87
2022/03/24 10:58:31;;;;;;;;;;;;;;;9.06;52.30;101723.84;5013824;28;1886;-87
2022/03/24 11:01:01;;;;;;;;;;;;;;;9.41;50.93;101725.63;5012611;28;1362;-88
2022/03/24 11:03:26;;;;;;;;;;;;;;;9.64;51.36;101724.72;5012594;28;1292;-87
2022/03/24 11:05:52;;;;;;;;;;;;;;;9.69;46.76;101713.88;5012686;28;1336;-88
2022/03/24 11:08:18;;;;;;;;;;;;;;;9.64;45.95;101717.34;5014059;28;1468;-87
2022/03/24 11:10:45;;;;;;;;;;;;;;;9.63;45.06;101720.31;5012887;28;1344;-88
2022/03/24 11:13:11;;;;;;;;;;;;;;;9.95;42.68;101721.47;5012358;28;1485;-86
2022/03/24 11:15:39;;;;;;;;;;;;;;;10.24;42.93;101716.78;5012962;28;1342;-88
2022/03/24 11:18:04;;;;;;;;;;;;;;;10.27;43.14;101719.03;5011845;28;1882;-86
2022/03/24 11:20:37;;;;;;;;;;;;;;;10.20;43.06;101712.91;5012637;28;1275;-88
2022/03/24 11:23:09;;;;;;;;;;;;;;;10.21;43.17;101717.28;5012171;28;1597;-87
2022/03/24 11:25:34;;;;;;;;;;;;;;;10.38;44.05;101709.09;5012080;28;1381;-87
2022/03/24 11:28:00;;;;;;;;;;;;;;;10.90;39.23;101709.56;5012421;28;1314;-88
2022/03/24 11:30:25;;;;;;;;;;;;;;;10.90;39.86;101702.19;5012069;28;1187;-87
2022/03/24 11:32:52;;;;;;;;;;;;;;;11.14;36.21;101701.97;5012007;28;1351;-86
2022/03/24 11:35:17;;;;;;;;;;;;;;;11.44;35.27;101704.22;5012421;28;1292;-87
2022/03/24 11:37:43;;;;;;;;;;;;;;;11.34;35.87;101699.44;5012480;28;1306;-87
2022/03/24 11:40:08;;;;;;;;;;;;;;;11.42;36.06;101701.75;5012436;28;1946;-87
2022/03/24 11:42:36;;;;;;;;;;;;;;;11.27;37.17;101696.09;5012321;28;1288;-87
2022/03/24 11:45:03;;;;;;;;;;;;;;;11.16;36.93;101694.28;5012954;28;1366;-87
2022/03/24 11:47:46;;;;;;;;;;;;;;;11.45;37.24;101689.44;5011439;28;1496;-87
2022/03/24 11:50:12;;;;;;;;;;;;;;;11.30;37.62;101658.03;5011643;28;1484;-87
2022/03/24 11:52:37;;;;;;;;;;;;;;;11.43;37.70;101683.38;5011933;28;1495;-87
2022/03/24 11:55:11;;;;;;;;;;;;;;;11.44;37.71;101677.63;5011652;28;1551;-87
2022/03/24 11:57:37;;;;;;;;;;;;;;;11.43;38.56;101684.22;5011971;28;1409;-87
2022/03/24 12:00:14;;;;;;;;;;;;;;;11.52;36.33;101679.09;5013291;28;1961;-87
2022/03/24 12:02:39;;;;;;;;;;;;;;;11.53;38.04;101673.34;4993834;28;1197;-87
2022/03/24 12:05:05;;;;;;;;;;;;;;;11.57;36.87;101673.69;4995689;28;1295;-87
2022/03/24 12:07:31;;;;;;;;;;;;;;;11.70;38.31;101674.06;5011668;28;1524;-87
2022/03/24 12:10:01;;;;;;;;;;;;;;;11.70;36.99;101671.34;5011719;28;1497;-87
2022/03/24 12:12:26;;;;;;;;;;;;;;;11.92;35.91;101664.97;5011881;28;1390;-87
2022/03/24 12:14:54;;;;;;;;;;;;;;;11.84;35.25;101666.28;5011700;28;1524;-88
2022/03/24 12:17:31;;;;;;;;;;;;;;;11.85;35.64;101667.09;5012303;28;1362;-87
2022/03/24 12:19:57;;;;;;;;;;;;;;;11.90;36.96;101667.16;5013414;28;1890;-88
2022/03/24 12:22:26;;;;;;;;;;;;;;;11.93;37.92;101655.66;5013109;28;996;-87
2022/03/24 12:24:52;;;;;;;;;;;;;;;12.07;38.33;101657.72;5011476;28;1350;-87
2022/03/24 12:27:17;;;;;;;;;;;;;;;12.23;38.37;101647.69;5012943;28;1118;-87
2022/03/24 12:29:42;;;;;;;;;;;;;;;12.25;36.90;101653.72;5014117;28;1184;-88
2022/03/24 12:32:11;;;;;;;;;;;;;;;12.42;37.29;101642.56;5015456;28;1124;-87
2022/03/24 12:34:39;;;;;;;;;;;;;;;12.66;38.64;101637.50;5015170;28;1208;-87
2022/03/24 12:37:05;;;;;;;;;;;;;;;12.79;37.07;101637.84;5015491;28;1350;-87
2022/03/24 12:39:35;;;;;;;;;;;;;;;12.84;36.36;101642.56;5015253;28;1893;-87
2022/03/24 12:42:10;;;;;;;;;;;;;;;12.89;35.92;101632.41;5015468;28;1161;-87
2022/03/24 12:44:49;;;;;;;;;;;;;;;13.02;35.96;101635.72;5015007;28;1336;-87
2022/03/24 12:47:34;;;;;;;;;;;;;;;12.96;36.68;101623.06;5016480;28;789;-88
2022/03/24 12:50:06;;;;;;;;;;;;;;;12.91;36.27;101629.38;5015243;28;1189;-88
2022/03/24 12:53:07;;;;;;;;;;;;;;;13.03;37.16;101626.41;5015075;28;1205;-87
2022/03/24 12:55:32;;;;;;;;;;;;;;;13.21;37.12;101618.53;4958295;28;1457;-87
2022/03/24 12:57:59;;;;;;;;;;;;;;;13.20;36.14;101616.88;5006652;28;1894;-87
2022/03/24 13:00:26;;;;;;;;;;;;;;;13.27;36.03;101615.81;5015001;28;1278;-87
2022/03/24 13:02:54;;;;;;;;;;;;;;;13.27;36.14;101614.69;5014889;28;1331;-88
2022/03/24 13:05:24;;;;;;;;;;;;;;;13.40;36.95;101615.25;5014837;28;1264;-87
2022/03/24 13:07:50;;;;;;;;;;;;;;;13.53;36.58;101614.72;5014936;28;1322;-87
2022/03/24 13:10:15;;;;;;;;;;;;;;;13.68;36.08;101606.50;5015896;28;834;-87
2022/03/24 13:12:42;;;;;;;;;;;;;;;13.78;36.01;101612.00;5014748;28;1311;-87
2022/03/24 13:15:16;;;;;;;;;;;;;;;13.92;36.46;101607.63;5015790;28;861;-88
2022/03/24 13:17:41;;;;;;;;;;;;;;;14.23;36.02;101602.88;5014661;28;1216;-87
2022/03/24 13:20:06;;;;;;;;;;;;;;;15.04;34.67;101596.31;5015810;28;1890;-87
2022/03/24 13:22:33;;;;;;;;;;;;;;;18.65;28.28;101590.75;5014750;28;1315;-87
2022/03/24 13:25:01;;;;;;;;;;;;;;;20.80;26.14;101586.88;5015511;28;876;-87
2022/03/24 13:27:27;;;;;;;;;;;;;;;20.77;26.70;101591.09;5014496;28;1236;-86
2022/03/24 13:29:52;;;;;;;;;;;;;;;19.03;28.92;101585.81;5015680;28;886;-88
2022/03/24 13:32:19;;;;;;;;;;;;;;;17.94;29.78;101581.81;5014426;28;1223;-88
2022/03/24 13:34:48;;;;;;;;;;;;;;;17.05;31.45;101577.34;5014147;28;1343;-87
2022/03/24 13:37:14;;;;;;;;;;;;;;;17.02;32.18;101582.34;5015546;28;787;-88
2022/03/24 13:39:44;;;;;;;;;;;;;;;17.89;31.15;101572.75;5013862;28;1969;-88
2022/03/24 13:42:10;;;;;;;;;;;;;;;17.70;30.04;101570.84;5013589;28;1319;-88
2022/03/24 13:44:35;;;;;;;;;;;;;;;17.01;31.83;101575.16;5013932;28;1248;-88
2022/03/24 13:47:01;;;;;;;;;;;;;;;17.12;31.11;101572.28;5014170;28;1374;-87
2022/03/24 13:49:26;;;;;;;;;;;;;;;17.09;31.40;101582.00;5014176;28;1255;-88
2022/03/24 13:51:51;;;;;;;;;;;;;;;17.48;31.80;101576.16;5014004;28;1320;-88
2022/03/24 13:54:20;;;;;;;;;;;;;;;17.42;31.07;101576.56;5013672;28;1163;-87
2022/03/24 13:56:45;;;;;;;;;;;;;;;16.86;30.99;101574.56;5013542;28;1348;-87
2022/03/24 13:59:10;;;;;;;;;;;;;;;17.48;31.25;101570.63;5013806;28;1902;-87
2022/03/24 14:01:36;;;;;;;;;;;;;;;19.18;27.43;101569.63;5013579;28;1571;-88
2022/03/24 14:04:15;;;;;;;;;;;;;;;18.38;25.90;101564.63;5013657;28;1607;-87
2022/03/24 14:06:40;;;;;;;;;;;;;;;18.38;27.22;101570.16;5015020;28;1435;-86
2022/03/24 14:09:06;;;;;;;;;;;;;;;19.79;25.86;101567.38;5013707;28;1487;-87
2022/03/24 14:11:31;;;;;;;;;;;;;;;19.73;24.26;101560.31;5014088;28;1567;-88
2022/03/24 14:13:58;;;;;;;;;;;;;;;18.92;26.16;101568.56;5013532;28;1272;-86
2022/03/24 14:16:31;;;;;;;;;;;;;;;17.82;26.75;101553.75;5015192;28;844;-86
2022/03/24 14:19:06;;;;;;;;;;;;;;;17.47;29.03;101563.44;5014430;28;1959;-87
2022/03/24 14:21:37;;;;;;;;;;;;;;;17.00;31.32;101551.44;5034910;28;805;-87
2022/03/24 14:27:27;;;;;;;;;;;;;;;20.10;26.12;101551.53;5050685;28;1515;-87
2022/03/24 14:40:22;;;;;;;;;;;;;;;;;;;;;
2022/03/24 14:46:01;;;;;;;;;;;;;;;19.45;26.55;101527.06;4943915;28;1465;-87
2022/03/24 14:48:27;;;;;;;;;;;;;;;19.76;26.02;101532.69;5010516;28;1449;-86
2022/03/24 14:50:53;;;;;;;;;;;;;;;20.17;25.56;101526.88;5034166;28;873;-87
2022/03/24 14:53:19;;;;;;;;;;;;;;;18.88;27.26;101520.38;5016211;28;1217;-87
2022/03/24 14:55:44;;;;;;;;;;;;;;;18.00;27.65;101522.41;5032914;28;2012;-87
2022/03/24 14:58:10;;;;;;;;;;;;;;;19.06;27.30;101530.47;5016191;28;1902;-87
2022/03/24 15:00:36;;;;;;;;;;;;;;;19.58;26.83;101526.22;5032573;28;1500;-87
2022/03/24 15:03:01;;;;;;;;;;;;;;;18.91;27.04;101516.97;5015509;28;1437;-88
2022/03/24 15:05:26;;;;;;;;;;;;;;;18.03;28.11;101523.75;5016157;28;1280;-86
2022/03/24 15:07:52;;;;;;;;;;;;;;;18.45;29.94;101520.72;5033494;28;1486;-86
2022/03/24 15:10:18;;;;;;;;;;;;;;;19.53;27.83;101519.97;5019819;28;1319;-87
2022/03/24 15:12:43;;;;;;;;;;;;;;;18.09;30.07;101520.59;5033223;28;1280;-88
2022/03/24 15:17:56;;;;;;;;;;;;;;;17.86;28.81;101523.53;5033598;28;1332;-88
2022/03/24 15:20:21;;;;;;;;;;;;;;;17.82;29.01;101519.69;5015816;28;1883;-87
2022/03/24 15:22:46;;;;;;;;;;;;;;;18.23;27.12;101519.75;5033590;28;1283;-88
2022/03/24 15:25:11;;;;;;;;;;;;;;;18.18;27.80;101517.91;5015623;28;1366;-89
2022/03/24 15:27:38;;;;;;;;;;;;;;;18.01;28.18;101520.47;5032912;28;1694;-87
2022/03/24 15:30:03;;;;;;;;;;;;;;;18.23;28.95;101515.03;5032078;28;1210;-87
2022/03/24 15:32:28;;;;;;;;;;;;;;;18.64;29.18;101512.28;5048185;28;1694;-88
2022/03/24 15:34:54;;;;;;;;;;;;;;;19.67;27.20;101508.78;5015129;28;1487;-88
2022/03/24 15:37:19;;;;;;;;;;;;;;;19.27;28.59;101520.56;5032987;28;1340;-86
2022/03/24 15:39:45;;;;;;;;;;;;;;;18.40;29.38;101517.19;5015510;28;1875;-87
2022/03/24 15:42:10;;;;;;;;;;;;;;;18.29;29.90;101515.78;5015724;28;1215;-88
2022/03/24 15:44:36;;;;;;;;;;;;;;;18.20;30.65;101517.63;5015111;28;1523;-87
2022/03/24 15:47:01;;;;;;;;;;;;;;;17.51;30.92;101519.38;5015686;28;1302;-87
2022/03/24 15:49:27;;;;;;;;;;;;;;;17.76;30.55;101516.22;5015626;28;1248;-87
2022/03/24 15:51:52;;;;;;;;;;;;;;;18.86;28.74;101514.31;5015566;28;1205;-88
2022/03/24 15:54:17;;;;;;;;;;;;;;;19.08;29.31;101519.91;5015217;28;1260;-87
2022/03/24 15:56:42;;;;;;;;;;;;;;;18.55;29.62;101522.41;5033381;28;1399;-90
2022/03/24 15:59:09;;;;;;;;;;;;;;;17.47;30.49;101515.56;5033397;28;1890;-88
2022/03/24 16:01:35;;;;;;;;;;;;;;;17.22;31.84;101519.56;5032700;28;1677;-87